Time;durP1;ratioP1;P1;durP2;ratioP2;P2;SDS_P1;SDS_P2;PMS_P1;PMS_P2;Temp;Humidity;BMP_temperature;BMP_pressure;BME280_temperature;BME280_humidity;BME280_pressure;Samples;Min_cycle;Max_cycle;Signal;HPM_P1;HPM_P2
2023/08/30 00:01:37;;;;;;;7.37;3.20;;;;;15.40;100369.00;;;;5029486;28;20731;-71
2023/08/30 00:04:24;;;;;;;4.03;2.80;;;;;15.40;100383.00;;;;5031836;28;20324;-71
2023/08/30 00:07:11;;;;;;;3.30;3.00;;;;;15.40;100365.00;;;;5028956;28;20308;-72
2023/08/30 00:09:59;;;;;;;7.43;3.07;;;;;15.30;100359.00;;;;5035299;28;20609;-72
2023/08/30 00:12:45;;;;;;;5.73;3.00;;;;;15.20;100363.00;;;;5023026;28;20247;-72
2023/08/30 00:15:32;;;;;;;3.13;2.83;;;;;15.10;100357.00;;;;5023776;28;20820;-72
2023/08/30 00:18:19;;;;;;;4.00;3.37;;;;;15.10;100360.00;;;;5020717;28;20291;-72
2023/08/30 00:21:06;;;;;;;3.20;2.87;;;;;15.10;100360.00;;;;5025786;28;20235;-71
2023/08/30 00:23:53;;;;;;;5.73;3.60;;;;;15.00;100358.00;;;;5026308;28;20304;-72
2023/08/30 00:26:40;;;;;;;6.27;3.13;;;;;15.00;100355.00;;;;5021606;28;20830;-72
2023/08/30 00:29:27;;;;;;;7.00;3.50;;;;;14.90;100361.00;;;;5023643;28;20241;-72
2023/08/30 00:32:13;;;;;;;4.73;3.20;;;;;14.90;100357.00;;;;5026669;28;20241;-73
2023/08/30 00:35:00;;;;;;;6.20;3.77;;;;;14.80;100352.00;;;;5024534;28;20325;-72
2023/08/30 00:37:47;;;;;;;5.90;4.00;;;;;14.80;100358.00;;;;5020067;28;20229;-71
2023/08/30 00:40:39;;;;;;;7.70;3.90;;;;;14.80;100353.00;;;;5019480;28;20233;-72
2023/08/30 00:43:25;;;;;;;10.23;4.40;;;;;14.80;100353.00;;;;5015233;28;20237;-71
2023/08/30 00:46:12;;;;;;;5.60;4.40;;;;;14.80;100343.00;;;;5026509;28;20240;-72
2023/08/30 00:48:59;;;;;;;6.23;4.03;;;;;14.80;100342.00;;;;5032144;28;20731;-71
2023/08/30 00:51:46;;;;;;;5.53;4.27;;;;;14.70;100337.00;;;;5029125;28;20258;-71
2023/08/30 00:54:34;;;;;;;6.40;4.03;;;;;14.70;100350.00;;;;5025845;28;20268;-71
2023/08/30 00:57:21;;;;;;;6.50;4.37;;;;;14.60;100348.00;;;;5019753;28;20309;-71
2023/08/30 01:00:10;;;;;;;8.60;4.70;;;;;14.60;100344.00;;;;5025144;28;20224;-71
2023/08/30 01:02:57;;;;;;;8.97;4.50;;;;;14.60;100334.00;;;;5042228;28;20311;-71
2023/08/30 01:05:43;;;;;;;6.13;4.20;;;;;14.50;100335.00;;;;5027540;28;20228;-71
2023/08/30 01:08:30;;;;;;;9.07;4.00;;;;;14.40;100344.00;;;;5016530;28;20234;-72
2023/08/30 01:11:26;;;;;;;5.87;4.20;;;;;14.40;100334.00;;;;5031834;28;20229;-71
2023/08/30 01:14:16;;;;;;;5.83;4.03;;;;;14.40;100324.00;;;;5044751;28;20729;-71
2023/08/30 01:17:04;;;;;;;6.40;3.77;;;;;14.40;100322.00;;;;5043129;28;20757;-72
2023/08/30 01:19:59;;;;;;;5.17;4.00;;;;;14.30;100317.00;;;;5041380;28;20226;-71
2023/08/30 01:22:54;;;;;;;4.80;4.23;;;;;14.40;100310.00;;;;5033986;28;20845;-71
2023/08/30 01:25:51;;;;;;;5.53;4.13;;;;;14.40;100299.00;;;;5043737;28;20240;-72
2023/08/30 01:28:40;;;;;;;5.40;4.40;;;;;14.40;100306.00;;;;5033902;28;20272;-71
2023/08/30 01:31:29;;;;;;;5.17;4.20;;;;;14.40;100307.00;;;;5041894;28;20236;-71
2023/08/30 01:34:17;;;;;;;7.00;5.03;;;;;14.30;100315.00;;;;5040389;28;20330;-72
2023/08/30 01:37:05;;;;;;;6.87;4.50;;;;;14.30;100317.00;;;;5040953;28;20361;-72
2023/08/30 01:39:53;;;;;;;7.00;4.87;;;;;14.30;100312.00;;;;5022054;28;20976;-71
2023/08/30 01:42:40;;;;;;;8.37;4.73;;;;;14.30;100313.00;;;;5019321;28;20305;-72
2023/08/30 01:45:28;;;;;;;9.60;5.10;;;;;14.20;100330.00;;;;5022276;28;20716;-70
2023/08/30 01:48:17;;;;;;;8.63;4.57;;;;;14.20;100331.00;;;;5024967;28;20781;-72
2023/08/30 01:51:04;;;;;;;7.43;4.63;;;;;14.10;100315.00;;;;5034604;28;20232;-71
2023/08/30 01:53:53;;;;;;;8.90;4.70;;;;;14.10;100313.00;;;;5023566;28;20233;-71
2023/08/30 01:56:39;;;;;;;6.53;4.77;;;;;14.10;100319.00;;;;5019300;28;20231;-71
2023/08/30 01:59:25;;;;;;;6.33;4.97;;;;;14.00;100315.00;;;;5020755;28;20230;-71
2023/08/30 02:02:13;;;;;;;9.47;4.47;;;;;14.00;100308.00;;;;5017096;28;20657;-71
2023/08/30 02:05:01;;;;;;;5.50;4.47;;;;;14.00;100317.00;;;;5036638;28;20639;-72
2023/08/30 02:07:55;;;;;;;5.67;4.93;;;;;14.00;100310.00;;;;5027941;28;20404;-71
2023/08/30 02:10:49;;;;;;;7.97;4.70;;;;;13.90;100319.00;;;;5024054;28;20233;-71
2023/08/30 02:13:36;;;;;;;6.87;5.00;;;;;13.90;100318.00;;;;5020498;28;20239;-71
2023/08/30 02:16:24;;;;;;;10.27;5.10;;;;;13.90;100315.00;;;;5021518;28;20228;-72
2023/08/30 02:19:13;;;;;;;8.27;5.30;;;;;13.90;100320.00;;;;5039479;28;20237;-71
2023/08/30 02:22:00;;;;;;;7.77;5.10;;;;;14.00;100316.00;;;;5039039;28;20232;-72
2023/08/30 02:24:46;;;;;;;5.97;4.90;;;;;14.00;100311.00;;;;5031563;28;20244;-72
2023/08/30 02:27:33;;;;;;;8.20;5.23;;;;;14.10;100314.00;;;;5026314;28;21125;-72
2023/08/30 02:30:20;;;;;;;10.90;5.10;;;;;14.20;100325.00;;;;5027116;28;20989;-71
2023/08/30 02:33:06;;;;;;;8.90;6.00;;;;;14.20;100331.00;;;;5019571;28;20224;-71
2023/08/30 02:35:54;;;;;;;8.90;6.40;;;;;14.30;100326.00;;;;5023991;28;20230;-72
2023/08/30 02:38:41;;;;;;;10.10;5.60;;;;;14.30;100339.00;;;;5024827;28;20244;-70
2023/08/30 02:41:28;;;;;;;6.73;5.43;;;;;14.30;100339.00;;;;5016698;28;20325;-72
2023/08/30 02:44:14;;;;;;;9.77;5.73;;;;;14.30;100332.00;;;;5023944;28;20315;-72
2023/08/30 02:47:01;;;;;;;6.60;5.57;;;;;14.30;100320.00;;;;5043137;28;20311;-71
2023/08/30 02:49:47;;;;;;;7.63;5.90;;;;;14.30;100310.00;;;;5019454;28;20241;-71
2023/08/30 02:52:35;;;;;;;9.40;5.50;;;;;14.30;100309.00;;;;5013466;28;20364;-72
2023/08/30 02:55:21;;;;;;;13.13;5.80;;;;;14.30;100304.00;;;;5018201;28;20239;-71
2023/08/30 02:58:08;;;;;;;9.27;5.83;;;;;14.30;100293.00;;;;5023649;28;20277;-72
2023/08/30 03:00:54;;;;;;;9.43;6.40;;;;;14.20;100284.00;;;;5016237;28;20610;-72
2023/08/30 03:03:41;;;;;;;8.63;6.67;;;;;14.20;100294.00;;;;5023738;28;20233;-71
2023/08/30 03:06:27;;;;;;;9.97;6.57;;;;;14.20;100274.00;;;;5012961;28;20229;-72
2023/08/30 03:09:15;;;;;;;11.27;7.03;;;;;14.20;100300.00;;;;5035337;28;20356;-71
2023/08/30 03:12:01;;;;;;;8.57;6.67;;;;;14.20;100298.00;;;;5028658;28;20233;-72
2023/08/30 03:14:47;;;;;;;8.73;6.50;;;;;14.20;100296.00;;;;5017718;28;20229;-71
2023/08/30 03:17:35;;;;;;;11.23;7.80;;;;;14.20;100291.00;;;;5016020;28;20306;-71
2023/08/30 03:20:22;;;;;;;9.80;6.80;;;;;14.10;100292.00;;;;5022954;28;20231;-71
2023/08/30 03:23:08;;;;;;;11.03;7.83;;;;;14.10;100297.00;;;;5017566;28;20218;-69
2023/08/30 03:25:56;;;;;;;13.27;8.13;;;;;14.10;100285.00;;;;5019945;28;20229;-72
2023/08/30 03:28:44;;;;;;;14.90;8.63;;;;;14.10;100284.00;;;;5025520;28;20245;-71
2023/08/30 03:31:31;;;;;;;14.37;9.40;;;;;14.10;100281.00;;;;5025761;28;20239;-72
2023/08/30 03:34:17;;;;;;;13.60;8.87;;;;;14.00;100280.00;;;;5025072;28;20237;-71
2023/08/30 03:37:04;;;;;;;14.40;9.23;;;;;14.00;100270.00;;;;5026165;28;20742;-72
2023/08/30 03:39:51;;;;;;;15.77;9.10;;;;;14.00;100280.00;;;;5029685;28;20618;-71
2023/08/30 03:42:39;;;;;;;13.10;8.93;;;;;14.00;100278.00;;;;5023651;28;20306;-71
2023/08/30 03:45:25;;;;;;;16.23;8.83;;;;;13.90;100275.00;;;;5020939;28;20910;-71
2023/08/30 03:48:11;;;;;;;15.10;8.80;;;;;13.90;100271.00;;;;5025013;28;20228;-72
2023/08/30 03:50:58;;;;;;;12.93;8.93;;;;;13.90;100271.00;;;;5027349;28;20245;-72
2023/08/30 03:53:45;;;;;;;14.13;8.30;;;;;13.90;100265.00;;;;5022041;28;20863;-72
2023/08/30 03:56:32;;;;;;;12.93;8.57;;;;;13.90;100256.00;;;;5026820;28;20225;-71
2023/08/30 03:59:22;;;;;;;11.00;8.20;;;;;13.80;100258.00;;;;5029805;28;20233;-72
2023/08/30 04:02:12;;;;;;;14.63;9.07;;;;;13.80;100267.00;;;;5024036;28;20232;-72
2023/08/30 04:04:58;;;;;;;15.40;9.40;;;;;13.90;100257.00;;;;5041848;28;20317;-72
2023/08/30 04:07:44;;;;;;;12.67;9.40;;;;;14.00;100260.00;;;;5036321;28;20233;-71
2023/08/30 04:10:34;;;;;;;16.27;9.90;;;;;14.00;100259.00;;;;5028428;28;20286;-70
2023/08/30 04:13:21;;;;;;;17.93;10.30;;;;;14.10;100259.00;;;;5038971;28;20413;-71
2023/08/30 04:16:09;;;;;;;20.10;11.40;;;;;14.10;100245.00;;;;5036984;28;20348;-71
2023/08/30 04:18:55;;;;;;;15.30;10.83;;;;;14.10;100252.00;;;;5029553;28;20265;-70
2023/08/30 04:21:42;;;;;;;18.03;11.00;;;;;14.10;100249.00;;;;5029488;28;20303;-71
2023/08/30 04:24:28;;;;;;;15.17;10.50;;;;;14.20;100249.00;;;;5026071;28;20258;-71
2023/08/30 04:27:15;;;;;;;16.77;10.10;;;;;14.20;100237.00;;;;5026320;28;20229;-71
2023/08/30 04:30:01;;;;;;;16.60;10.80;;;;;14.20;100246.00;;;;5033676;28;20336;-71
2023/08/30 04:32:49;;;;;;;17.60;10.10;;;;;14.30;100231.00;;;;5020231;28;20233;-71
2023/08/30 04:35:35;;;;;;;15.40;10.17;;;;;14.30;100231.00;;;;5024743;28;20310;-71
2023/08/30 04:38:22;;;;;;;15.77;10.47;;;;;14.30;100237.00;;;;5044006;28;20236;-70
2023/08/30 04:41:08;;;;;;;16.77;10.30;;;;;14.20;100223.00;;;;5028072;28;20233;-71
2023/08/30 04:43:55;;;;;;;15.23;9.70;;;;;14.20;100230.00;;;;5027186;28;20317;-71
2023/08/30 04:46:41;;;;;;;15.93;10.97;;;;;14.20;100224.00;;;;5026114;28;20223;-71
2023/08/30 04:49:29;;;;;;;19.93;11.57;;;;;14.10;100227.00;;;;5021022;28;20292;-72
2023/08/30 04:52:15;;;;;;;16.37;9.83;;;;;14.10;100222.00;;;;5020358;28;20316;-71
2023/08/30 04:55:02;;;;;;;18.57;11.47;;;;;14.00;100224.00;;;;5027787;28;20227;-71
2023/08/30 04:57:48;;;;;;;26.33;12.57;;;;;14.00;100218.00;;;;5019513;28;20287;-71
2023/08/30 05:00:36;;;;;;;18.83;11.30;;;;;14.00;100223.00;;;;5026561;28;20988;-71
2023/08/30 05:03:22;;;;;;;19.50;11.23;;;;;13.90;100214.00;;;;5021874;28;20234;-72
2023/08/30 05:06:11;;;;;;;18.53;11.53;;;;;13.90;100215.00;;;;5021638;28;20607;-71
2023/08/30 05:08:59;;;;;;;20.73;11.47;;;;;13.90;100214.00;;;;5029136;28;20359;-71
2023/08/30 05:11:46;;;;;;;17.13;11.87;;;;;13.80;100217.00;;;;5025828;28;20242;-71
2023/08/30 05:14:32;;;;;;;20.33;12.20;;;;;13.80;100204.00;;;;5026117;28;20302;-71
2023/08/30 05:17:18;;;;;;;18.40;11.60;;;;;13.80;100195.00;;;;5017040;28;20234;-71
2023/08/30 05:20:06;;;;;;;22.17;12.83;;;;;13.80;100192.00;;;;5033559;28;20326;-71
2023/08/30 05:22:54;;;;;;;19.73;12.30;;;;;13.80;100188.00;;;;5028158;28;20241;-70
2023/08/30 05:25:40;;;;;;;18.40;11.40;;;;;13.80;100190.00;;;;5025623;28;20289;-71
2023/08/30 05:28:27;;;;;;;18.00;11.43;;;;;13.80;100183.00;;;;5024834;28;20779;-71
2023/08/30 05:31:13;;;;;;;18.67;11.83;;;;;13.80;100185.00;;;;5031124;28;20244;-70
2023/08/30 05:34:00;;;;;;;22.20;13.27;;;;;13.80;100177.00;;;;5037806;28;20237;-71
2023/08/30 05:36:46;;;;;;;25.10;12.10;;;;;13.80;100170.00;;;;5035485;28;20303;-71
2023/08/30 05:39:35;;;;;;;21.07;13.13;;;;;13.80;100166.00;;;;5038330;28;20237;-70
2023/08/30 05:42:21;;;;;;;21.17;12.80;;;;;13.90;100167.00;;;;5040465;28;20379;-71
2023/08/30 05:45:08;;;;;;;23.87;12.97;;;;;13.80;100168.00;;;;5038848;28;20800;-71
2023/08/30 05:47:55;;;;;;;22.87;13.17;;;;;13.80;100167.00;;;;5039455;28;20291;-71
2023/08/30 05:50:41;;;;;;;24.60;14.53;;;;;13.90;100165.00;;;;5032881;28;20225;-71
2023/08/30 05:53:28;;;;;;;24.33;13.57;;;;;13.90;100174.00;;;;5032771;28;20242;-71
2023/08/30 05:56:17;;;;;;;27.57;15.47;;;;;14.00;100168.00;;;;5024877;28;20316;-71
2023/08/30 05:59:03;;;;;;;24.47;14.83;;;;;13.90;100164.00;;;;5018959;28;20730;-71
2023/08/30 06:01:49;;;;;;;26.60;14.63;;;;;14.00;100163.00;;;;5020825;28;20303;-71
2023/08/30 06:04:36;;;;;;;28.77;14.40;;;;;14.00;100161.00;;;;5024017;28;20354;-70
2023/08/30 06:07:22;;;;;;;27.03;15.50;;;;;14.00;100158.00;;;;5019439;28;20230;-70
2023/08/30 06:10:09;;;;;;;25.63;15.33;;;;;14.10;100163.00;;;;5014921;28;20248;-70
2023/08/30 06:12:56;;;;;;;23.23;13.83;;;;;14.10;100160.00;;;;5023105;28;20343;-71
2023/08/30 06:15:44;;;;;;;27.17;14.17;;;;;14.20;100157.00;;;;5024457;28;20366;-70
2023/08/30 06:18:32;;;;;;;30.13;16.40;;;;;14.30;100160.00;;;;5016480;28;20305;-70
2023/08/30 06:21:18;;;;;;;29.40;15.83;;;;;14.40;100153.00;;;;5017790;28;20241;-71
2023/08/30 06:24:05;;;;;;;29.03;15.93;;;;;14.40;100151.00;;;;5038519;28;20305;-70
2023/08/30 06:26:51;;;;;;;28.80;16.30;;;;;14.50;100151.00;;;;5022393;28;20667;-70
2023/08/30 06:29:39;;;;;;;28.53;16.23;;;;;14.60;100148.00;;;;5037451;28;20226;-71
2023/08/30 06:32:26;;;;;;;29.80;16.53;;;;;14.60;100141.00;;;;5039913;28;20753;-71
2023/08/30 06:35:12;;;;;;;26.87;14.93;;;;;14.70;100148.00;;;;5038283;28;20230;-70
2023/08/30 06:37:59;;;;;;;30.00;16.30;;;;;14.80;100156.00;;;;5034765;28;20392;-71
2023/08/30 06:40:46;;;;;;;33.90;17.97;;;;;14.90;100141.00;;;;5030429;28;20861;-71
2023/08/30 06:43:32;;;;;;;41.70;21.23;;;;;15.00;100131.00;;;;5030623;28;20283;-71
2023/08/30 06:46:20;;;;;;;37.17;20.70;;;;;15.00;100123.00;;;;5024279;28;20265;-70
2023/08/30 06:49:09;;;;;;;38.37;21.17;;;;;15.20;100122.00;;;;5022999;28;20229;-71
2023/08/30 06:51:55;;;;;;;39.30;20.67;;;;;15.20;100115.00;;;;5018290;28;20306;-70
2023/08/30 06:54:41;;;;;;;34.97;21.07;;;;;15.30;100117.00;;;;5019374;28;20220;-71
2023/08/30 06:57:28;;;;;;;41.57;21.80;;;;;15.50;100135.00;;;;5015965;28;20373;-73
2023/08/30 07:00:15;;;;;;;34.77;21.10;;;;;15.70;100131.00;;;;5022266;28;20263;-71
2023/08/30 07:03:03;;;;;;;35.43;20.27;;;;;15.90;100126.00;;;;5033557;28;20238;-72
2023/08/30 07:05:51;;;;;;;33.43;19.90;;;;;16.00;100127.00;;;;5031269;28;20703;-73
2023/08/30 07:08:38;;;;;;;33.30;18.70;;;;;16.10;100126.00;;;;5039249;28;20228;-72
2023/08/30 07:11:24;;;;;;;30.20;18.47;;;;;16.20;100120.00;;;;5017143;28;20250;-74
2023/08/30 07:14:20;;;;;;;27.67;16.17;;;;;16.30;100118.00;;;;5024894;28;20233;-73
2023/08/30 07:17:07;;;;;;;27.37;17.13;;;;;16.30;100114.00;;;;5026064;28;20654;-73
2023/08/30 07:19:55;;;;;;;28.53;16.70;;;;;16.40;100111.00;;;;5026407;28;20600;-72
2023/08/30 07:22:41;;;;;;;25.97;15.00;;;;;16.40;100115.00;;;;5028737;28;20249;-73
2023/08/30 07:25:27;;;;;;;24.23;16.43;;;;;16.40;100116.00;;;;5032279;28;20602;-71
2023/08/30 07:28:14;;;;;;;26.53;16.40;;;;;16.50;100118.00;;;;5027011;28;20296;-73
2023/08/30 07:31:05;;;;;;;28.40;16.47;;;;;16.60;100117.00;;;;5043287;28;20247;-70
2023/08/30 07:33:51;;;;;;;26.10;15.60;;;;;16.60;100106.00;;;;5027551;28;20368;-71
2023/08/30 07:36:39;;;;;;;25.60;15.80;;;;;16.60;100097.00;;;;5026729;28;20241;-71
2023/08/30 07:39:33;;;;;;;26.87;16.10;;;;;16.70;100102.00;;;;5047101;28;20249;-71
2023/08/30 07:42:19;;;;;;;27.53;16.33;;;;;16.80;100102.00;;;;5037942;28;20606;-70
2023/08/30 07:45:07;;;;;;;24.43;15.17;;;;;16.90;100095.00;;;;5039041;28;20224;-71
2023/08/30 07:47:53;;;;;;;23.23;14.80;;;;;16.90;100090.00;;;;5045098;28;20232;-69
2023/08/30 07:50:40;;;;;;;25.87;16.20;;;;;17.00;100098.00;;;;5043376;28;20359;-71
2023/08/30 07:53:28;;;;;;;24.87;15.33;;;;;17.10;100101.00;;;;5036976;28;20368;-73
2023/08/30 07:56:14;;;;;;;26.07;15.30;;;;;17.20;100095.00;;;;5027975;28;20245;-70
2023/08/30 07:59:00;;;;;;;22.67;15.37;;;;;17.20;100103.00;;;;5036461;28;20233;-70
2023/08/30 08:01:47;;;;;;;24.80;14.47;;;;;17.30;100091.00;;;;5029103;28;20225;-71
2023/08/30 08:04:33;;;;;;;22.93;14.43;;;;;17.30;100100.00;;;;5033115;28;20295;-70
2023/08/30 08:07:20;;;;;;;19.03;13.60;;;;;17.30;100104.00;;;;5030141;28;20598;-70
2023/08/30 08:10:08;;;;;;;24.53;13.87;;;;;17.50;100094.00;;;;5027151;28;20710;-70
2023/08/30 08:12:55;;;;;;;19.10;12.80;;;;;17.60;100102.00;;;;5012678;28;20237;-70
2023/08/30 08:15:44;;;;;;;21.03;12.30;;;;;17.70;100094.00;;;;5025246;28;20245;-70
2023/08/30 08:18:31;;;;;;;16.27;12.40;;;;;17.90;100097.00;;;;5024146;28;20237;-71
2023/08/30 08:21:17;;;;;;;20.83;13.17;;;;;17.90;100097.00;;;;5022673;28;20356;-71
2023/08/30 08:24:05;;;;;;;18.87;12.27;;;;;17.90;100098.00;;;;5023695;28;20229;-70
2023/08/30 08:26:53;;;;;;;17.77;11.60;;;;;18.00;100101.00;;;;5021123;28;20241;-70
2023/08/30 08:29:40;;;;;;;17.60;11.10;;;;;18.00;100102.00;;;;5022582;28;20237;-71
2023/08/30 08:32:26;;;;;;;17.13;11.50;;;;;18.00;100092.00;;;;5020737;28;20733;-69
2023/08/30 08:35:12;;;;;;;19.20;10.97;;;;;18.10;100099.00;;;;5026862;28;20759;-71
2023/08/30 08:37:58;;;;;;;15.47;11.00;;;;;18.10;100089.00;;;;5024730;28;20233;-71
2023/08/30 08:40:45;;;;;;;17.07;10.87;;;;;18.10;100085.00;;;;5018744;28;20307;-68
2023/08/30 08:43:34;;;;;;;15.67;10.27;;;;;18.10;100078.00;;;;5023913;28;20241;-68
2023/08/30 08:46:22;;;;;;;11.77;8.60;;;;;18.20;100090.00;;;;5033436;28;20609;-68
2023/08/30 08:49:11;;;;;;;11.60;8.40;;;;;18.20;100078.00;;;;5025797;28;20229;-73
2023/08/30 08:51:58;;;;;;;10.50;8.13;;;;;18.20;100078.00;;;;5030447;28;20242;-71
2023/08/30 08:54:45;;;;;;;10.73;7.40;;;;;18.40;100077.00;;;;5039834;28;20363;-71
2023/08/30 08:57:32;;;;;;;11.23;6.60;;;;;18.40;100076.00;;;;5025854;28;20225;-72
2023/08/30 09:00:20;;;;;;;10.17;7.23;;;;;18.40;100074.00;;;;5021157;28;20245;-74
2023/08/30 09:03:07;;;;;;;11.77;6.90;;;;;18.40;100069.00;;;;5022056;28;20257;-71
2023/08/30 09:05:56;;;;;;;11.03;6.60;;;;;18.50;100058.00;;;;5015838;28;20229;-71
2023/08/30 09:08:42;;;;;;;11.80;6.47;;;;;18.60;100070.00;;;;5021638;28;20732;-72
2023/08/30 09:11:29;;;;;;;8.80;7.00;;;;;18.80;100065.00;;;;5041853;28;20240;-75
2023/08/30 09:14:35;;;;;;;11.00;6.50;;;;;18.90;100067.00;;;;5041233;28;20237;-73
2023/08/30 09:17:23;;;;;;;13.67;7.17;;;;;19.10;100062.00;;;;5046565;28;20714;-67
2023/08/30 09:20:10;;;;;;;12.63;6.83;;;;;19.20;100055.00;;;;5043684;28;20718;-68
2023/08/30 09:22:56;;;;;;;8.53;6.90;;;;;19.20;100060.00;;;;5039365;28;20236;-67
2023/08/30 09:25:43;;;;;;;9.40;6.70;;;;;19.00;100041.00;;;;5037199;28;20593;-67
2023/08/30 09:28:29;;;;;;;9.07;6.80;;;;;18.70;100059.00;;;;5039283;28;20260;-68
2023/08/30 09:31:20;;;;;;;12.40;7.33;;;;;18.50;100057.00;;;;5023506;28;20229;-69
2023/08/30 09:34:11;;;;;;;12.43;7.00;;;;;18.40;100063.00;;;;5023883;28;20711;-67
2023/08/30 09:36:59;;;;;;;9.13;6.67;;;;;18.30;100057.00;;;;5017861;28;20746;-66
2023/08/30 09:39:49;;;;;;;9.30;6.83;;;;;18.30;100052.00;;;;5022240;28;20882;-68
2023/08/30 09:42:41;;;;;;;8.30;5.70;;;;;18.40;100057.00;;;;5018210;28;20730;-64
2023/08/30 09:45:27;;;;;;;8.97;6.00;;;;;18.40;100049.00;;;;5025200;28;20300;-65
2023/08/30 09:48:14;;;;;;;8.80;6.10;;;;;18.50;100053.00;;;;5019824;28;20225;-65
2023/08/30 09:51:04;;;;;;;10.23;6.03;;;;;18.40;100047.00;;;;5029052;28;20228;-67
2023/08/30 09:53:59;;;;;;;7.60;5.43;;;;;18.50;100037.00;;;;5016423;28;20237;-65
2023/08/30 09:56:53;;;;;;;7.87;5.83;;;;;18.40;100041.00;;;;5022635;28;20216;-65
2023/08/30 09:59:40;;;;;;;7.90;6.27;;;;;18.30;100050.00;;;;5022153;28;20729;-67
2023/08/30 10:02:29;;;;;;;11.30;6.60;;;;;18.30;100046.00;;;;5013607;28;20369;-65
2023/08/30 10:05:16;;;;;;;10.63;6.30;;;;;18.30;100056.00;;;;5023447;28;20229;-66
2023/08/30 10:08:07;;;;;;;10.93;7.43;;;;;18.10;100064.00;;;;5026022;28;20625;-67
2023/08/30 10:10:54;;;;;;;10.43;7.33;;;;;18.20;100070.00;;;;5030015;28;20228;-67
2023/08/30 10:13:43;;;;;;;11.07;8.17;;;;;18.20;100074.00;;;;5020397;28;20237;-66
2023/08/30 10:16:37;;;;;;;13.50;8.13;;;;;18.10;100067.00;;;;5023922;28;20380;-66
2023/08/30 10:19:25;;;;;;;11.93;8.40;;;;;18.00;100083.00;;;;5019083;28;20272;-67
2023/08/30 10:22:15;;;;;;;10.10;8.03;;;;;17.90;100070.00;;;;5029969;28;20725;-69
2023/08/30 10:25:06;;;;;;;11.37;8.47;;;;;17.80;100078.00;;;;5026325;28;20729;-69
2023/08/30 10:27:58;;;;;;;14.27;8.27;;;;;17.70;100079.00;;;;5023788;28;20689;-68
2023/08/30 10:30:45;;;;;;;13.20;9.50;;;;;17.50;100078.00;;;;5023365;28;20323;-69
2023/08/30 10:33:31;;;;;;;13.73;10.10;;;;;17.50;100070.00;;;;5022322;28;20233;-69
2023/08/30 10:36:24;;;;;;;14.60;9.90;;;;;17.30;100068.00;;;;5044537;28;20225;-69
2023/08/30 10:39:13;;;;;;;13.30;9.47;;;;;17.30;100078.00;;;;5032866;28;20232;-70
2023/08/30 10:42:00;;;;;;;14.07;9.90;;;;;17.10;100075.00;;;;5022261;28;20239;-69
2023/08/30 10:44:50;;;;;;;14.83;10.07;;;;;17.10;100076.00;;;;5027754;28;20228;-69
2023/08/30 10:47:58;;;;;;;13.93;9.97;;;;;17.00;100059.00;;;;5016221;28;20265;-69
2023/08/30 10:50:44;;;;;;;15.77;10.47;;;;;17.00;100058.00;;;;5040865;28;20251;-68
2023/08/30 10:53:31;;;;;;;15.53;9.80;;;;;17.00;100070.00;;;;5032026;28;20717;-70
2023/08/30 10:56:17;;;;;;;16.47;9.70;;;;;16.80;100066.00;;;;5039138;28;20225;-69
2023/08/30 10:59:05;;;;;;;18.20;9.83;;;;;16.90;100066.00;;;;5024788;28;20225;-68
2023/08/30 11:01:53;;;;;;;12.93;9.47;;;;;16.90;100063.00;;;;5043378;28;20241;-69
2023/08/30 11:04:42;;;;;;;21.07;9.87;;;;;16.80;100066.00;;;;5030110;28;20241;-69
2023/08/30 11:07:28;;;;;;;16.17;9.80;;;;;16.80;100065.00;;;;5023813;28;20237;-69
2023/08/30 11:10:15;;;;;;;14.43;9.10;;;;;16.70;100068.00;;;;5027156;28;20233;-68
2023/08/30 11:13:03;;;;;;;16.60;10.27;;;;;16.80;100050.00;;;;5022075;28;20229;-68
2023/08/30 11:15:51;;;;;;;13.40;9.73;;;;;16.70;100050.00;;;;5040737;28;20240;-68
2023/08/30 11:18:39;;;;;;;14.20;10.60;;;;;16.60;100060.00;;;;5025200;28;20299;-69
2023/08/30 11:21:25;;;;;;;14.73;10.40;;;;;16.70;100056.00;;;;5026054;28;20237;-70
2023/08/30 11:24:12;;;;;;;14.30;10.33;;;;;16.70;100060.00;;;;5013825;28;20241;-68
2023/08/30 11:26:58;;;;;;;16.20;11.60;;;;;16.60;100059.00;;;;5027328;28;20233;-67
2023/08/30 11:29:45;;;;;;;16.03;11.47;;;;;16.60;100057.00;;;;5022744;28;20326;-71
2023/08/30 11:32:34;;;;;;;19.00;12.07;;;;;16.60;100055.00;;;;5019268;28;20353;-68
2023/08/30 11:35:22;;;;;;;18.17;12.20;;;;;16.60;100056.00;;;;5018128;28;20424;-68
2023/08/30 11:38:09;;;;;;;17.20;12.27;;;;;16.70;100059.00;;;;5030139;28;20839;-68
2023/08/30 11:40:56;;;;;;;18.23;12.57;;;;;16.70;100060.00;;;;5022311;28;20897;-69
2023/08/30 11:43:42;;;;;;;16.33;12.33;;;;;16.50;100055.00;;;;5031988;28;20235;-69
2023/08/30 11:46:31;;;;;;;17.60;12.23;;;;;16.50;100057.00;;;;5043071;28;20240;-70
2023/08/30 11:49:19;;;;;;;17.93;13.30;;;;;16.50;100048.00;;;;5026927;28;20598;-69
2023/08/30 11:52:07;;;;;;;17.47;12.57;;;;;16.50;100055.00;;;;5020588;28;20237;-69
2023/08/30 11:54:55;;;;;;;19.80;12.03;;;;;16.40;100045.00;;;;5024869;28;20257;-70
2023/08/30 11:57:44;;;;;;;17.73;12.33;;;;;16.50;100034.00;;;;5039810;28;21007;-69
2023/08/30 12:00:33;;;;;;;18.23;12.53;;;;;16.60;100034.00;;;;5037187;28;20610;-68
2023/08/30 12:03:20;;;;;;;17.57;12.70;;;;;16.60;100035.00;;;;5024333;28;20232;-71
2023/08/30 12:06:12;;;;;;;17.63;12.73;;;;;16.60;100042.00;;;;5018541;28;20711;-69
2023/08/30 12:08:59;;;;;;;15.23;12.37;;;;;16.60;100047.00;;;;5037660;28;20591;-68
2023/08/30 12:11:45;;;;;;;17.53;11.87;;;;;16.60;100044.00;;;;5031459;28;20793;-69
2023/08/30 12:14:34;;;;;;;18.60;12.93;;;;;16.70;100038.00;;;;5041228;28;20244;-68
2023/08/30 12:17:21;;;;;;;20.13;12.93;;;;;16.70;100040.00;;;;5031939;28;20369;-71
2023/08/30 12:20:16;;;;;;;18.40;12.67;;;;;16.80;100049.00;;;;5026367;28;20221;-68
2023/08/30 12:23:04;;;;;;;16.73;12.83;;;;;17.00;100040.00;;;;5028569;28;20233;-68
2023/08/30 12:26:00;;;;;;;17.43;12.50;;;;;17.00;100043.00;;;;5041268;28;20232;-68
2023/08/30 12:28:47;;;;;;;16.07;11.90;;;;;17.10;100029.00;;;;5040394;28;20228;-69
2023/08/30 12:31:33;;;;;;;16.80;11.97;;;;;17.20;100027.00;;;;5023196;28;20241;-69
2023/08/30 12:34:19;;;;;;;14.70;11.00;;;;;17.10;100028.00;;;;5019775;28;20241;-68
2023/08/30 12:37:06;;;;;;;17.93;11.53;;;;;17.20;100024.00;;;;5020082;28;21028;-70
2023/08/30 12:39:53;;;;;;;14.70;11.03;;;;;17.20;100020.00;;;;5025736;28;20234;-69
2023/08/30 12:42:40;;;;;;;16.67;10.97;;;;;17.20;100027.00;;;;5024985;28;20238;-68
2023/08/30 12:45:26;;;;;;;14.10;10.70;;;;;17.20;100030.00;;;;5025738;28;20714;-69
2023/08/30 12:48:15;;;;;;;16.57;11.40;;;;;17.30;100024.00;;;;5026481;28;20345;-69
2023/08/30 12:51:03;;;;;;;17.40;11.83;;;;;17.40;100017.00;;;;5026057;28;20252;-69
2023/08/30 12:53:49;;;;;;;18.20;10.73;;;;;17.40;100021.00;;;;5021982;28;20269;-67
2023/08/30 12:56:37;;;;;;;14.37;10.57;;;;;17.40;100021.00;;;;5037843;28;20292;-66
2023/08/30 12:59:24;;;;;;;15.53;10.57;;;;;17.40;100009.00;;;;5035923;28;20233;-66
2023/08/30 13:02:10;;;;;;;16.63;10.90;;;;;17.40;100009.00;;;;5024216;28;20364;-68
2023/08/30 13:04:57;;;;;;;14.13;10.63;;;;;17.40;100005.00;;;;5012957;28;20233;-67
2023/08/30 13:07:44;;;;;;;16.87;11.70;;;;;17.40;100000.00;;;;5023483;28;20221;-66
2023/08/30 13:10:31;;;;;;;16.63;11.13;;;;;17.30;99995.00;;;;5024891;28;20612;-69
2023/08/30 13:13:21;;;;;;;15.57;11.17;;;;;17.20;99992.00;;;;5024852;28;20232;-69
2023/08/30 13:16:07;;;;;;;16.00;11.97;;;;;17.30;99996.00;;;;5013449;28;20324;-67
2023/08/30 13:18:53;;;;;;;19.73;12.37;;;;;17.30;100001.00;;;;5023371;28;20328;-67
2023/08/30 13:21:42;;;;;;;17.77;12.20;;;;;17.20;100007.00;;;;5039995;28;20291;-67
2023/08/30 13:24:30;;;;;;;17.37;12.40;;;;;17.20;100004.00;;;;5019717;28;20246;-67
2023/08/30 13:27:16;;;;;;;18.67;13.43;;;;;17.20;100015.00;;;;5025394;28;20271;-67
2023/08/30 13:30:04;;;;;;;17.93;12.07;;;;;17.20;100008.00;;;;5029193;28;20620;-67
2023/08/30 13:32:51;;;;;;;19.70;13.10;;;;;17.10;100017.00;;;;5028367;28;20244;-67
2023/08/30 13:35:39;;;;;;;19.40;14.03;;;;;17.00;100004.00;;;;5013967;28;20361;-68